createdAt,value
2023-04-07T00:00:39.269Z,50.4954
2023-04-07T00:01:41.657Z,50.7774
2023-04-07T00:02:44.788Z,50.7116
2023-04-07T00:03:46.472Z,50.3778
2023-04-07T00:04:48.638Z,50.2974
2023-04-07T00:05:50.957Z,50.9223
2023-04-07T00:06:53.318Z,51.4727
2023-04-07T00:07:56.832Z,51.7023
2023-04-07T00:08:57.966Z,51.4959
2023-04-07T00:10:00.285Z,51.4035
2023-04-07T00:11:02.632Z,51.2479
2023-04-07T00:12:04.970Z,50.8389
2023-04-07T00:13:07.288Z,50.5074
2023-04-07T00:14:09.630Z,50.4109
2023-04-07T00:15:11.962Z,51.4611
2023-04-07T00:16:14.321Z,51.7822
2023-04-07T00:17:16.650Z,52.1530
2023-04-07T00:18:18.961Z,51.8301
2023-04-07T00:19:21.305Z,52.3562
2023-04-07T00:20:23.628Z,52.1381
2023-04-07T00:21:25.965Z,51.7396
2023-04-07T00:22:28.307Z,51.3870
2023-04-07T00:23:30.635Z,51.5038
2023-04-07T00:24:34.600Z,51.8272
2023-04-07T00:25:35.299Z,53.0146
2023-04-07T00:26:37.627Z,52.8245
2023-04-07T00:27:39.974Z,52.2921
2023-04-07T00:28:42.296Z,51.9388
2023-04-07T00:29:44.628Z,51.6221
2023-04-07T00:30:46.963Z,51.4611
2023-04-07T00:31:49.297Z,50.8107
2023-04-07T00:32:51.727Z,50.8127
2023-04-07T00:33:54.174Z,51.3220
2023-04-07T00:34:56.291Z,51.5908
2023-04-07T00:35:58.683Z,51.2966
2023-04-07T00:37:00.956Z,51.5238
2023-04-07T00:38:03.302Z,51.5258
2023-04-07T00:39:05.618Z,52.0712
2023-04-07T00:40:07.987Z,52.5095
2023-04-07T00:41:10.300Z,52.3091
2023-04-07T00:42:12.627Z,51.9302
2023-04-07T00:43:14.983Z,51.9324
2023-04-07T00:44:17.305Z,52.2851
2023-04-07T00:45:19.632Z,51.5445
2023-04-07T00:46:21.995Z,51.2337
2023-04-07T00:47:24.364Z,51.1398
2023-04-07T00:48:26.650Z,51.1407
2023-04-07T00:49:28.972Z,51.4191
2023-04-07T00:50:31.318Z,51.0002
2023-04-07T00:51:33.639Z,50.7626
2023-04-07T00:52:35.986Z,50.1755
2023-04-07T00:53:38.335Z,49.6667
2023-04-07T00:54:40.649Z,49.4629
2023-04-07T00:55:43.006Z,50.5064
2023-04-07T00:56:45.320Z,50.1892
2023-04-07T00:57:47.652Z,50.3160
2023-04-07T00:58:50.179Z,50.1093
2023-04-07T00:59:52.328Z,49.5763
2023-04-07T01:00:54.663Z,49.0423
2023-04-07T01:01:57.028Z,48.4967
2023-04-07T01:02:59.491Z,48.8611
2023-04-07T01:04:01.758Z,49.2568
2023-04-07T01:05:04.058Z,50.2602
2023-04-07T01:06:06.343Z,49.3638
2023-04-07T01:07:08.690Z,48.7562
2023-04-07T01:08:11.015Z,48.3759
2023-04-07T01:09:13.371Z,48.7083
2023-04-07T01:10:15.686Z,48.7461
2023-04-07T01:11:18.028Z,48.2634
2023-04-07T01:12:20.361Z,47.8828
2023-04-07T01:13:22.693Z,48.0148
2023-04-07T01:14:25.029Z,48.3877
2023-04-07T01:15:27.391Z,48.6637
2023-04-07T01:16:29.755Z,48.4594
2023-04-07T01:17:32.058Z,48.6819
2023-04-07T01:18:34.383Z,48.1603
2023-04-07T01:19:36.713Z,48.2687
2023-04-07T01:20:39.047Z,48.3038
2023-04-07T01:21:41.377Z,49.3412
2023-04-07T01:22:43.702Z,49.6471
2023-04-07T01:23:46.041Z,49.5676
2023-04-07T01:24:48.375Z,49.6049
2023-04-07T01:25:50.710Z,49.6636
2023-04-07T01:26:53.031Z,49.5118
2023-04-07T01:27:55.384Z,48.4760
2023-04-07T01:28:57.706Z,48.6264
2023-04-07T01:30:00.038Z,48.5559
2023-04-07T01:31:02.398Z,48.7604
2023-04-07T01:32:04.780Z,48.8217
2023-04-07T01:33:07.128Z,48.8538
2023-04-07T01:34:09.378Z,48.7975
2023-04-07T01:35:11.719Z,49.0915
2023-04-07T01:36:14.060Z,49.1943
2023-04-07T01:37:16.397Z,49.3138
2023-04-07T01:38:18.724Z,49.6409
2023-04-07T01:39:21.060Z,49.6094
2023-04-07T01:40:23.386Z,50.2296
2023-04-07T01:41:25.735Z,49.9687
2023-04-07T01:42:28.057Z,49.9959
2023-04-07T01:43:30.379Z,50.0204
2023-04-07T01:44:32.711Z,50.2786
2023-04-07T01:45:35.053Z,50.6364
2023-04-07T01:46:37.430Z,50.6520
2023-04-07T01:47:39.803Z,50.2245
2023-04-07T01:48:42.054Z,50.9587
2023-04-07T01:49:44.389Z,50.6713
2023-04-07T01:50:46.719Z,50.3096
2023-04-07T01:51:49.055Z,50.2261
2023-04-07T01:52:51.446Z,50.0492
2023-04-07T01:53:53.954Z,50.1102
2023-04-07T01:54:56.051Z,49.7804
2023-04-07T01:55:58.389Z,50.5792
2023-04-07T01:57:00.714Z,50.3625
2023-04-07T01:58:03.056Z,49.5940
2023-04-07T01:59:05.382Z,51.0348
2023-04-07T02:00:07.746Z,51.3893
2023-04-07T02:01:10.089Z,49.7953
2023-04-07T02:02:12.458Z,49.8743
2023-04-07T02:03:14.870Z,50.0554
2023-04-07T02:04:17.054Z,50.1701
2023-04-07T02:05:19.385Z,49.4759
2023-04-07T02:06:21.714Z,49.0309
2023-04-07T02:07:24.071Z,49.0778
2023-04-07T02:08:26.392Z,48.7772
2023-04-07T02:09:28.713Z,48.9449
2023-04-07T02:10:31.050Z,48.8304
2023-04-07T02:11:33.382Z,49.3307
2023-04-07T02:12:35.707Z,49.5922
2023-04-07T02:13:38.044Z,49.6304
2023-04-07T02:14:40.367Z,49.7293
2023-04-07T02:15:42.734Z,49.7297
2023-04-07T02:16:46.900Z,49.9746
2023-04-07T02:17:47.389Z,50.6257
2023-04-07T02:18:49.716Z,51.0853
2023-04-07T02:19:52.042Z,50.9618
2023-04-07T02:20:54.382Z,51.3526
2023-04-07T02:21:56.753Z,51.0404
2023-04-07T02:22:59.044Z,50.5102
2023-04-07T02:24:01.378Z,50.0851
2023-04-07T02:25:03.712Z,49.9769
2023-04-07T02:26:06.054Z,50.3125
2023-04-07T02:27:08.397Z,51.2293
2023-04-07T02:28:10.711Z,51.8242
2023-04-07T02:29:13.038Z,51.8356
2023-04-07T02:30:15.376Z,51.9523
2023-04-07T02:31:17.733Z,52.2449
2023-04-07T02:32:20.079Z,52.6952
2023-04-07T02:33:22.365Z,53.5517
2023-04-07T02:34:24.701Z,52.9626
2023-04-07T02:35:27.040Z,52.1658
2023-04-07T02:36:29.404Z,51.1668
2023-04-07T02:37:31.691Z,50.8001
2023-04-07T02:38:34.027Z,50.8882
2023-04-07T02:39:36.361Z,50.5254
2023-04-07T02:40:38.695Z,50.7102
2023-04-07T02:41:41.033Z,50.7843
2023-04-07T02:42:43.367Z,51.2802
2023-04-07T02:43:45.694Z,51.0445
2023-04-07T02:44:48.032Z,50.7401
2023-04-07T02:45:50.373Z,49.8691
2023-04-07T02:46:52.712Z,50.3513
2023-04-07T02:47:55.075Z,49.6600
2023-04-07T02:48:57.368Z,49.6682
2023-04-07T02:49:59.691Z,49.9441
2023-04-07T02:51:02.029Z,50.6767
2023-04-07T02:52:04.379Z,50.8831
2023-04-07T02:53:06.691Z,49.9823
2023-04-07T02:54:09.025Z,50.4047
2023-04-07T02:55:11.359Z,51.0597
2023-04-07T02:56:13.683Z,52.0260
2023-04-07T02:57:16.047Z,52.0191
2023-04-07T02:58:18.353Z,52.7483
2023-04-07T02:59:20.751Z,53.4482
2023-04-07T03:00:23.076Z,54.0685
2023-04-07T03:01:25.450Z,54.0709
2023-04-07T03:02:27.797Z,54.0533
2023-04-07T03:03:30.159Z,54.3715
2023-04-07T03:04:32.401Z,54.1036
2023-04-07T03:05:34.739Z,54.0276
2023-04-07T03:06:37.065Z,54.3628
2023-04-07T03:07:39.421Z,54.5543
2023-04-07T03:08:41.734Z,54.4160
2023-04-07T03:09:44.059Z,54.1733
2023-04-07T03:10:46.422Z,53.2913
2023-04-07T03:11:48.720Z,53.3958
2023-04-07T03:12:51.072Z,53.6998
2023-04-07T03:13:53.616Z,54.1381
2023-04-07T03:14:55.724Z,53.7589
2023-04-07T03:15:58.053Z,53.3970
2023-04-07T03:17:00.453Z,53.4995
2023-04-07T03:18:02.772Z,53.8384
2023-04-07T03:19:05.041Z,53.2990
2023-04-07T03:20:07.373Z,53.2463
2023-04-07T03:21:09.706Z,53.5422
2023-04-07T03:22:12.043Z,53.2266
2023-04-07T03:23:14.386Z,53.8675
2023-04-07T03:24:16.707Z,53.7386
2023-04-07T03:25:19.062Z,54.1881
2023-04-07T03:26:21.395Z,53.8399
2023-04-07T03:27:23.706Z,53.6520
2023-04-07T03:28:26.127Z,53.3252
2023-04-07T03:29:28.375Z,53.3667
2023-04-07T03:30:30.711Z,52.9135
2023-04-07T03:31:33.028Z,52.7039
2023-04-07T03:32:35.423Z,52.7242
2023-04-07T03:33:37.709Z,52.3628
2023-04-07T03:34:40.046Z,52.2804
2023-04-07T03:35:42.406Z,52.5339
2023-04-07T03:36:44.716Z,52.2891
2023-04-07T03:37:47.064Z,51.3913
2023-04-07T03:38:49.373Z,51.6348
2023-04-07T03:39:52.200Z,51.8144
2023-04-07T03:40:54.076Z,51.8237
2023-04-07T03:41:56.370Z,52.0065
2023-04-07T03:42:58.705Z,51.9103
2023-04-07T03:44:01.040Z,51.6623
2023-04-07T03:45:03.371Z,51.4726
2023-04-07T03:46:05.754Z,52.2611
2023-04-07T03:47:08.038Z,52.4294
2023-04-07T03:48:10.440Z,52.0207
2023-04-07T03:49:12.700Z,52.5294
2023-04-07T03:50:15.030Z,52.0048
2023-04-07T03:51:17.370Z,52.3236
2023-04-07T03:52:19.700Z,52.5780
2023-04-07T03:53:22.030Z,52.4852
2023-04-07T03:54:24.359Z,52.5872
2023-04-07T03:55:26.702Z,51.9980
2023-04-07T03:56:29.105Z,52.1169
2023-04-07T03:57:31.366Z,51.9920
2023-04-07T03:58:33.696Z,51.8680
2023-04-07T03:59:36.035Z,52.1052
2023-04-07T04:00:38.363Z,52.2044
2023-04-07T04:01:40.765Z,52.3867
2023-04-07T04:02:43.121Z,52.3429
2023-04-07T04:03:45.420Z,51.8403
2023-04-07T04:04:47.758Z,52.1257
2023-04-07T04:05:50.023Z,52.1351
2023-04-07T04:06:52.367Z,50.9844
2023-04-07T04:07:54.696Z,51.1500
2023-04-07T04:08:57.014Z,52.3589
2023-04-07T04:09:59.351Z,52.3965
2023-04-07T04:11:01.688Z,52.2664
2023-04-07T04:12:04.018Z,52.7664
2023-04-07T04:13:06.341Z,53.3070
2023-04-07T04:14:08.677Z,53.4452
2023-04-07T04:15:11.029Z,53.7873
2023-04-07T04:16:15.237Z,53.9432
2023-04-07T04:17:15.672Z,54.4753
2023-04-07T04:18:18.003Z,54.5586
2023-04-07T04:19:20.350Z,54.0445
2023-04-07T04:20:22.756Z,53.7726
2023-04-07T04:21:24.990Z,53.3323
2023-04-07T04:22:27.322Z,53.6858
2023-04-07T04:23:29.658Z,53.5659
2023-04-07T04:24:31.986Z,52.4744
2023-04-07T04:25:34.309Z,52.5717
2023-04-07T04:26:36.644Z,52.9536
2023-04-07T04:27:38.963Z,52.8881
2023-04-07T04:28:41.301Z,52.6696
2023-04-07T04:29:43.639Z,52.8884
2023-04-07T04:30:45.960Z,52.8205
2023-04-07T04:31:48.324Z,52.6016
2023-04-07T04:32:50.696Z,52.7573
2023-04-07T04:33:53.225Z,53.0134
2023-04-07T04:34:55.293Z,53.4131
2023-04-07T04:35:57.644Z,53.5029
2023-04-07T04:36:59.967Z,53.6918
2023-04-07T04:38:02.285Z,53.5776
2023-04-07T04:39:04.609Z,53.9815
2023-04-07T04:40:06.956Z,53.8256
2023-04-07T04:41:09.294Z,54.1450
2023-04-07T04:42:11.607Z,53.8131
2023-04-07T04:43:13.940Z,53.8303
2023-04-07T04:44:16.287Z,54.0225
2023-04-07T04:45:18.630Z,54.7460
2023-04-07T04:46:20.946Z,55.2203
2023-04-07T04:47:23.393Z,55.0966
2023-04-07T04:48:25.591Z,54.4547
2023-04-07T04:49:27.934Z,54.4836
2023-04-07T04:50:30.257Z,54.4923
2023-04-07T04:51:32.579Z,54.8765
2023-04-07T04:52:34.921Z,55.1619
2023-04-07T04:53:37.246Z,55.0152
2023-04-07T04:54:39.586Z,55.1822
2023-04-07T04:55:41.910Z,54.9555
2023-04-07T04:56:44.252Z,54.9572
2023-04-07T04:57:46.575Z,55.1889
2023-04-07T04:58:48.903Z,54.9962
2023-04-07T04:59:51.240Z,55.0818
2023-04-07T05:00:53.625Z,54.8658
2023-04-07T05:01:55.954Z,55.2170
2023-04-07T05:02:58.422Z,55.3936
2023-04-07T05:04:00.916Z,55.4729
2023-04-07T05:05:03.000Z,55.1913
2023-04-07T05:06:05.237Z,55.7186
2023-04-07T05:07:07.571Z,55.7263
2023-04-07T05:08:09.903Z,55.1002
2023-04-07T05:09:12.255Z,55.3041
2023-04-07T05:10:14.567Z,55.7143
2023-04-07T05:11:16.898Z,55.5320
2023-04-07T05:12:19.224Z,56.3344
2023-04-07T05:13:21.562Z,56.7864
2023-04-07T05:14:23.891Z,56.0188
2023-04-07T05:15:26.237Z,56.1633
2023-04-07T05:16:28.599Z,55.9327
2023-04-07T05:17:30.893Z,56.0192
2023-04-07T05:18:33.206Z,56.2640
2023-04-07T05:19:35.559Z,55.8429
2023-04-07T05:20:37.874Z,55.0605
2023-04-07T05:21:40.209Z,54.9854
2023-04-07T05:22:42.528Z,55.3766
2023-04-07T05:23:44.853Z,55.3457
2023-04-07T05:24:47.187Z,55.1192
2023-04-07T05:25:49.532Z,54.7530
2023-04-07T05:26:51.849Z,54.4049
2023-04-07T05:27:54.184Z,54.1442
2023-04-07T05:28:56.504Z,54.2909
2023-04-07T05:29:58.840Z,54.9780
2023-04-07T05:31:01.183Z,55.3234
2023-04-07T05:32:03.561Z,55.4787
2023-04-07T05:33:05.873Z,55.4892
2023-04-07T05:34:08.175Z,55.6695
2023-04-07T05:35:10.519Z,55.2644
2023-04-07T05:36:12.841Z,55.5252
2023-04-07T05:37:15.153Z,55.3881
2023-04-07T05:38:17.495Z,55.3495
2023-04-07T05:39:19.829Z,54.5774
2023-04-07T05:40:22.188Z,54.5673
2023-04-07T05:41:24.488Z,54.4459
2023-04-07T05:42:26.814Z,53.7932
2023-04-07T05:43:29.147Z,53.1351
2023-04-07T05:44:31.486Z,53.2656
2023-04-07T05:45:33.874Z,53.3961
2023-04-07T05:46:36.147Z,53.9559
2023-04-07T05:47:38.527Z,54.5198
2023-04-07T05:48:40.804Z,54.2046
2023-04-07T05:49:43.138Z,53.9560
2023-04-07T05:50:45.475Z,53.8697
2023-04-07T05:51:49.016Z,53.9647
2023-04-07T05:52:50.151Z,53.8872
2023-04-07T05:53:52.739Z,53.8715
2023-04-07T05:54:54.794Z,53.9281
2023-04-07T05:55:57.129Z,53.9389
2023-04-07T05:56:59.442Z,53.4041
2023-04-07T05:58:01.781Z,52.9800
2023-04-07T05:59:04.105Z,53.5258
2023-04-07T06:00:06.431Z,53.5774
2023-04-07T06:01:08.809Z,53.7044
2023-04-07T06:02:11.212Z,53.9885
2023-04-07T06:03:13.528Z,53.8105
2023-04-07T06:04:15.762Z,53.1892
2023-04-07T06:05:18.121Z,52.8905
2023-04-07T06:06:20.450Z,53.5026
2023-04-07T06:07:22.765Z,53.6343
2023-04-07T06:08:25.091Z,53.4714
2023-04-07T06:09:27.426Z,53.5675
2023-04-07T06:10:29.783Z,53.5409
2023-04-07T06:11:32.106Z,53.4369
2023-04-07T06:12:34.429Z,53.2006
2023-04-07T06:13:36.764Z,53.3357
2023-04-07T06:14:39.103Z,54.3704
2023-04-07T06:15:41.432Z,54.9853
2023-04-07T06:16:43.781Z,54.2097
2023-04-07T06:17:46.166Z,54.3729
2023-04-07T06:18:48.432Z,53.7807
2023-04-07T06:19:50.762Z,52.8789
2023-04-07T06:20:53.113Z,52.7973
2023-04-07T06:21:55.421Z,52.9509
2023-04-07T06:22:57.799Z,53.5189
2023-04-07T06:24:00.135Z,53.0820
2023-04-07T06:25:02.432Z,53.0790
2023-04-07T06:26:04.748Z,52.8215
2023-04-07T06:27:07.091Z,52.5616
2023-04-07T06:28:09.416Z,51.7744
2023-04-07T06:29:11.744Z,51.5159
2023-04-07T06:30:14.080Z,51.9000
2023-04-07T06:31:16.444Z,52.3711
2023-04-07T06:32:18.742Z,52.2383
2023-04-07T06:33:21.156Z,51.8507
2023-04-07T06:34:23.408Z,51.9442
2023-04-07T06:35:25.763Z,52.0832
2023-04-07T06:36:28.069Z,52.5926
2023-04-07T06:37:30.410Z,52.1498
2023-04-07T06:38:32.753Z,51.7659
2023-04-07T06:39:35.089Z,50.9327
2023-04-07T06:40:37.422Z,50.8768
2023-04-07T06:41:39.755Z,51.3900
2023-04-07T06:42:42.091Z,52.1725
2023-04-07T06:43:44.445Z,52.4007
2023-04-07T06:44:46.755Z,52.7348
2023-04-07T06:45:49.140Z,52.6703
2023-04-07T06:46:51.431Z,53.0229
2023-04-07T06:47:53.791Z,53.0526
2023-04-07T06:48:56.100Z,53.2794
2023-04-07T06:49:58.435Z,53.4336
2023-04-07T06:51:00.781Z,53.8013
2023-04-07T06:52:03.109Z,53.1769
2023-04-07T06:53:05.428Z,54.2754
2023-04-07T06:54:07.771Z,53.8080
2023-04-07T06:55:10.096Z,52.9258
2023-04-07T06:56:12.449Z,52.9109
2023-04-07T06:57:14.764Z,53.8097
2023-04-07T06:58:17.320Z,54.4884
2023-04-07T06:59:19.443Z,55.7453
2023-04-07T07:00:21.775Z,55.9372
2023-04-07T07:01:24.144Z,56.0233
2023-04-07T07:02:26.501Z,55.7297
2023-04-07T07:03:28.934Z,56.3793
2023-04-07T07:04:31.169Z,56.3446
2023-04-07T07:05:33.519Z,56.8640
2023-04-07T07:06:35.864Z,57.5186
2023-04-07T07:07:38.173Z,58.3040
2023-04-07T07:08:40.513Z,58.3646
2023-04-07T07:09:42.854Z,57.7192
2023-04-07T07:10:45.166Z,56.9012
2023-04-07T07:11:47.502Z,56.8338
2023-04-07T07:12:49.828Z,56.8693
2023-04-07T07:13:52.177Z,56.6338
2023-04-07T07:14:54.494Z,59.0150
2023-04-07T07:15:56.867Z,58.8874
2023-04-07T07:16:59.154Z,58.2299
2023-04-07T07:18:01.584Z,57.5648
2023-04-07T07:19:03.828Z,57.1699
2023-04-07T07:20:06.140Z,56.4617
2023-04-07T07:21:08.492Z,55.7612
2023-04-07T07:22:10.815Z,55.5731
2023-04-07T07:23:13.145Z,55.3957
2023-04-07T07:24:15.484Z,55.6801
2023-04-07T07:25:17.809Z,55.8246
2023-04-07T07:26:20.129Z,55.9327
2023-04-07T07:27:22.484Z,55.5664
2023-04-07T07:28:24.792Z,55.4366
2023-04-07T07:29:27.409Z,54.9529
2023-04-07T07:30:29.456Z,55.0692
2023-04-07T07:31:31.969Z,56.6356
2023-04-07T07:32:34.141Z,57.9541
2023-04-07T07:33:36.462Z,58.1735
2023-04-07T07:34:38.805Z,58.0233
2023-04-07T07:35:41.136Z,57.5026
2023-04-07T07:36:43.488Z,56.6382
2023-04-07T07:37:45.787Z,56.1243
2023-04-07T07:38:48.116Z,57.6824
2023-04-07T07:39:50.455Z,59.1903
2023-04-07T07:40:52.773Z,59.5011
2023-04-07T07:41:55.105Z,58.5096
2023-04-07T07:42:57.665Z,57.6591
2023-04-07T07:43:59.771Z,57.1448
2023-04-07T07:45:02.129Z,56.6154
2023-04-07T07:46:04.449Z,56.9047
2023-04-07T07:47:06.774Z,56.4639
2023-04-07T07:48:09.114Z,57.8571
2023-04-07T07:49:11.439Z,57.4797
2023-04-07T07:50:13.792Z,56.9604
2023-04-07T07:51:16.109Z,55.8812
2023-04-07T07:52:18.444Z,55.7868
2023-04-07T07:53:20.784Z,55.5885
2023-04-07T07:54:23.129Z,54.9615
2023-04-07T07:55:25.506Z,54.6904
2023-04-07T07:56:27.791Z,54.7853
2023-04-07T07:57:30.120Z,54.0921
2023-04-07T07:58:32.449Z,53.7296
2023-04-07T07:59:34.793Z,53.8648
2023-04-07T08:00:37.173Z,53.7288
2023-04-07T08:01:39.509Z,53.7608
2023-04-07T08:02:41.916Z,53.8706
2023-04-07T08:03:44.215Z,54.1580
2023-04-07T08:04:46.516Z,54.3117
2023-04-07T08:05:48.811Z,54.1506
2023-04-07T08:06:51.125Z,53.4944
2023-04-07T08:07:54.762Z,53.6713
2023-04-07T08:08:55.791Z,53.5479
2023-04-07T08:09:58.144Z,54.1273
2023-04-07T08:11:00.485Z,55.3588
2023-04-07T08:12:02.796Z,54.9500
2023-04-07T08:13:05.256Z,54.7586
2023-04-07T08:14:08.751Z,54.0276
2023-04-07T08:15:09.808Z,53.8609
2023-04-07T08:16:12.238Z,53.3065
2023-04-07T08:17:14.478Z,53.7041
2023-04-07T08:18:16.810Z,53.6702
2023-04-07T08:19:19.162Z,53.1264
2023-04-07T08:20:21.479Z,53.4645
2023-04-07T08:21:23.866Z,52.9322
2023-04-07T08:22:26.275Z,52.3678
2023-04-07T08:23:28.485Z,52.2346
2023-04-07T08:24:30.828Z,52.4054
2023-04-07T08:25:33.154Z,51.9048
2023-04-07T08:26:35.495Z,51.1063
2023-04-07T08:27:37.850Z,51.5388
2023-04-07T08:28:40.158Z,51.8659
2023-04-07T08:29:42.512Z,51.1198
2023-04-07T08:30:44.836Z,51.5017
2023-04-07T08:31:47.219Z,51.7242
2023-04-07T08:32:49.537Z,51.9307
2023-04-07T08:33:51.835Z,51.4916
2023-04-07T08:34:54.174Z,51.4106
2023-04-07T08:35:56.571Z,51.3654
2023-04-07T08:36:58.837Z,51.6566
2023-04-07T08:38:01.191Z,52.9196
2023-04-07T08:39:04.011Z,53.6704
2023-04-07T08:40:05.860Z,53.2510
2023-04-07T08:41:08.190Z,53.2519
2023-04-07T08:42:10.518Z,53.6174
2023-04-07T08:43:12.865Z,54.0727
2023-04-07T08:44:15.205Z,54.0807
2023-04-07T08:45:17.533Z,54.8156
2023-04-07T08:46:19.913Z,54.5637
2023-04-07T08:47:22.262Z,54.1600
2023-04-07T08:48:24.544Z,55.5490
2023-04-07T08:49:26.891Z,55.1224
2023-04-07T08:50:29.222Z,55.4715
2023-04-07T08:51:31.561Z,55.7057
2023-04-07T08:52:33.900Z,56.1741
2023-04-07T08:53:36.256Z,56.6071
2023-04-07T08:54:38.569Z,57.2229
2023-04-07T08:55:40.899Z,57.9426
2023-04-07T08:56:43.437Z,58.3726
2023-04-07T08:57:45.566Z,58.3699
2023-04-07T08:58:47.896Z,58.1827
2023-04-07T08:59:50.232Z,58.3940
2023-04-07T09:00:52.599Z,58.5984
2023-04-07T09:01:54.942Z,58.2937
2023-04-07T09:02:57.282Z,58.8968
2023-04-07T09:03:59.642Z,59.0878
2023-04-07T09:05:01.889Z,59.3911
2023-04-07T09:06:04.224Z,59.3702
2023-04-07T09:07:06.573Z,59.7040
2023-04-07T09:08:08.917Z,60.0375
2023-04-07T09:09:11.408Z,60.1629
2023-04-07T09:10:13.555Z,60.7229
2023-04-07T09:11:15.885Z,60.7633
2023-04-07T09:12:18.236Z,60.1892
2023-04-07T09:13:20.551Z,60.1375
2023-04-07T09:14:22.872Z,60.7219
2023-04-07T09:15:25.211Z,60.7371
2023-04-07T09:16:27.555Z,60.2094
2023-04-07T09:17:29.970Z,60.2628
2023-04-07T09:18:32.217Z,60.3424
2023-04-07T09:19:34.555Z,60.5833
2023-04-07T09:20:36.884Z,61.0746
2023-04-07T09:21:39.229Z,61.5495
2023-04-07T09:22:41.579Z,61.0149
2023-04-07T09:23:43.901Z,60.4910
2023-04-07T09:24:46.224Z,60.3172
2023-04-07T09:25:48.565Z,60.1939
2023-04-07T09:26:50.886Z,59.8776
2023-04-07T09:27:53.252Z,59.9007
2023-04-07T09:28:55.556Z,60.3414
2023-04-07T09:29:57.893Z,59.6799
2023-04-07T09:31:00.236Z,59.6137
2023-04-07T09:32:02.596Z,59.4945
2023-04-07T09:33:04.943Z,59.9032
2023-04-07T09:34:07.259Z,59.4993
2023-04-07T09:35:09.581Z,59.4423
2023-04-07T09:36:11.945Z,60.1324
2023-04-07T09:37:14.253Z,60.3469
2023-04-07T09:38:16.593Z,60.5509
2023-04-07T09:39:18.927Z,60.6031
2023-04-07T09:40:21.294Z,60.9908
2023-04-07T09:41:23.636Z,60.3507
2023-04-07T09:42:25.940Z,60.6605
2023-04-07T09:43:28.281Z,60.7320
2023-04-07T09:44:30.606Z,60.5894
2023-04-07T09:45:35.094Z,61.0645
2023-04-07T09:46:35.381Z,61.4684
2023-04-07T09:47:37.631Z,61.9627
2023-04-07T09:48:39.982Z,61.1826
2023-04-07T09:49:42.281Z,61.2529
2023-04-07T09:50:44.617Z,61.4858
2023-04-07T09:51:46.958Z,60.8755
2023-04-07T09:52:49.282Z,60.6382
2023-04-07T09:53:52.053Z,60.4398
2023-04-07T09:54:53.962Z,60.7107
2023-04-07T09:55:56.291Z,60.1026
2023-04-07T09:56:58.640Z,59.9582
2023-04-07T09:58:00.963Z,60.5784
2023-04-07T09:59:03.310Z,60.7833
2023-04-07T10:00:05.638Z,60.6952
2023-04-07T10:01:08.009Z,61.3574
2023-04-07T10:02:10.375Z,61.5200
2023-04-07T10:03:12.683Z,61.6081
2023-04-07T10:04:14.976Z,61.5196
2023-04-07T10:05:17.309Z,61.7353
2023-04-07T10:06:19.645Z,61.8959
2023-04-07T10:07:21.986Z,62.2111
2023-04-07T10:08:24.314Z,62.3289
2023-04-07T10:09:26.650Z,62.4121
2023-04-07T10:10:28.996Z,62.0823
2023-04-07T10:11:31.315Z,61.9494
2023-04-07T10:12:33.674Z,61.7540
2023-04-07T10:13:35.989Z,61.6088
2023-04-07T10:14:40.272Z,61.7327
2023-04-07T10:15:40.667Z,61.5999
2023-04-07T10:16:43.025Z,61.4450
2023-04-07T10:17:45.366Z,60.9802
2023-04-07T10:18:47.676Z,61.2092
2023-04-07T10:19:50.009Z,61.1427
2023-04-07T10:20:52.339Z,60.8578
2023-04-07T10:21:54.683Z,60.5929
2023-04-07T10:22:57.015Z,60.6233
2023-04-07T10:23:59.372Z,60.5958
2023-04-07T10:25:01.684Z,60.7456
2023-04-07T10:26:04.030Z,61.0038
2023-04-07T10:27:06.358Z,61.0107
2023-04-07T10:28:08.700Z,60.5050
2023-04-07T10:29:11.046Z,60.0904
2023-04-07T10:30:13.362Z,60.4068
2023-04-07T10:31:15.700Z,60.1399
2023-04-07T10:32:18.025Z,59.9188
2023-04-07T10:33:20.356Z,59.9380
2023-04-07T10:34:22.716Z,59.6607
2023-04-07T10:35:25.053Z,59.7081
2023-04-07T10:36:27.357Z,59.7970
2023-04-07T10:37:29.708Z,59.9437
2023-04-07T10:38:32.031Z,59.9332
2023-04-07T10:39:34.374Z,59.8348
2023-04-07T10:40:36.700Z,59.7535
2023-04-07T10:41:39.044Z,59.9654
2023-04-07T10:42:41.364Z,59.9209
2023-04-07T10:43:43.697Z,60.7112
2023-04-07T10:44:46.043Z,61.0734
2023-04-07T10:45:48.643Z,61.5778
2023-04-07T10:46:50.689Z,61.9514
2023-04-07T10:47:53.083Z,62.0352
2023-04-07T10:48:55.364Z,62.7082
2023-04-07T10:49:57.718Z,63.7080
2023-04-07T10:51:00.030Z,63.6098
2023-04-07T10:52:02.376Z,64.4294
2023-04-07T10:53:04.693Z,65.4383
2023-04-07T10:54:07.026Z,66.8915
2023-04-07T10:55:09.365Z,66.1550
2023-04-07T10:56:11.692Z,66.7854
2023-04-07T10:57:14.026Z,67.2578
2023-04-07T10:58:16.372Z,67.4520
2023-04-07T10:59:18.686Z,67.4651
2023-04-07T11:00:21.022Z,67.5381
2023-04-07T11:01:23.409Z,67.6164
2023-04-07T11:02:26.044Z,68.2229
2023-04-07T11:03:28.171Z,68.8105
2023-04-07T11:04:30.385Z,67.6208
2023-04-07T11:05:32.686Z,67.1874
2023-04-07T11:06:35.012Z,67.4821
2023-04-07T11:07:37.347Z,68.4949
2023-04-07T11:08:39.699Z,69.3633
2023-04-07T11:09:42.012Z,70.8667
2023-04-07T11:10:44.430Z,71.8261
2023-04-07T11:11:46.759Z,72.7424
2023-04-07T11:12:49.092Z,73.3002
2023-04-07T11:13:51.718Z,73.6246
2023-04-07T11:14:53.745Z,73.0971
2023-04-07T11:15:56.210Z,73.2056
2023-04-07T11:16:58.429Z,72.7152
2023-04-07T11:18:00.778Z,74.4462
2023-04-07T11:19:03.101Z,74.4135
2023-04-07T11:20:05.418Z,73.6654
2023-04-07T11:21:07.878Z,74.3070
2023-04-07T11:22:16.288Z,75.2241
2023-04-07T11:23:12.455Z,75.0462
2023-04-07T11:24:14.785Z,74.0474
2023-04-07T11:25:17.073Z,73.9214
2023-04-07T11:26:19.398Z,74.2995
2023-04-07T11:27:21.731Z,73.8465
2023-04-07T11:28:24.059Z,73.8069
2023-04-07T11:29:26.403Z,73.8549
2023-04-07T11:30:28.731Z,73.4656
2023-04-07T11:31:31.132Z,74.1302
2023-04-07T11:32:33.391Z,75.2945
2023-04-07T11:33:35.706Z,76.0200
2023-04-07T11:34:38.055Z,75.4321
2023-04-07T11:35:40.375Z,75.4776
2023-04-07T11:36:42.713Z,75.8541
2023-04-07T11:37:45.032Z,77.0808
2023-04-07T11:38:47.366Z,77.2668
2023-04-07T11:39:49.731Z,76.1201
2023-04-07T11:40:52.019Z,77.2733
2023-04-07T11:41:54.350Z,78.1090
2023-04-07T11:42:56.687Z,75.6562
2023-04-07T11:43:59.008Z,75.2417
2023-04-07T11:45:01.372Z,75.9830
2023-04-07T11:46:03.672Z,74.6395
2023-04-07T11:47:06.055Z,75.4649
2023-04-07T11:48:08.367Z,75.9284
2023-04-07T11:49:10.662Z,76.3279
2023-04-07T11:50:14.346Z,75.4953
2023-04-07T11:51:15.312Z,74.4540
2023-04-07T11:52:17.645Z,74.7574
2023-04-07T11:53:19.965Z,75.7033
2023-04-07T11:54:22.295Z,76.8636
2023-04-07T11:55:24.685Z,76.1827
2023-04-07T11:56:26.953Z,75.5270
2023-04-07T11:57:29.305Z,75.5200
2023-04-07T11:58:31.610Z,75.9538
2023-04-07T11:59:33.944Z,75.0924
2023-04-07T12:00:36.286Z,75.7885
2023-04-07T12:01:38.660Z,77.2117
2023-04-07T12:02:41.018Z,78.2406
2023-04-07T12:03:43.389Z,78.8547
2023-04-07T12:04:45.674Z,78.0528
2023-04-07T12:05:47.936Z,78.7959
2023-04-07T12:06:50.259Z,78.4152
2023-04-07T12:07:52.588Z,77.9028
2023-04-07T12:08:54.929Z,78.3575
2023-04-07T12:09:57.246Z,78.7217
2023-04-07T12:10:59.585Z,77.6962
2023-04-07T12:12:01.916Z,77.3299
2023-04-07T12:13:04.235Z,76.7248
2023-04-07T12:14:06.566Z,77.5182
2023-04-07T12:15:08.895Z,77.1342
2023-04-07T12:16:11.261Z,76.4294
2023-04-07T12:17:13.563Z,75.5179
2023-04-07T12:18:15.892Z,75.2291
2023-04-07T12:19:18.222Z,74.5245
2023-04-07T12:20:20.557Z,75.3774
2023-04-07T12:21:22.898Z,73.7129
2023-04-07T12:22:25.213Z,72.1782
2023-04-07T12:23:27.547Z,73.7968
2023-04-07T12:24:29.868Z,74.9866
2023-04-07T12:25:32.207Z,73.1705
2023-04-07T12:26:34.541Z,73.6046
2023-04-07T12:27:43.185Z,73.4283
2023-04-07T12:28:39.196Z,73.1273
2023-04-07T12:29:41.519Z,73.2020
2023-04-07T12:30:43.842Z,72.6758
2023-04-07T12:31:46.747Z,72.6578
2023-04-07T12:32:48.542Z,73.5760
2023-04-07T12:33:51.087Z,73.7015